sensor_id;sensor_type;location;lat;lon;timestamp;P1;durP1;ratioP1;P2;durP2;ratioP2
22015;SDS011;11172;51.698;-0.292;2022-09-30T00:01:34;506.42;;;455.92;;
22015;SDS011;11172;51.698;-0.292;2022-09-30T00:04:00;505.40;;;455.25;;
22015;SDS011;11172;51.698;-0.292;2022-09-30T00:06:27;499.50;;;449.45;;
22015;SDS011;11172;51.698;-0.292;2022-09-30T00:08:54;505.10;;;454.33;;
22015;SDS011;11172;51.698;-0.292;2022-09-30T00:11:24;511.00;;;460.20;;
22015;SDS011;11172;51.698;-0.292;2022-09-30T00:13:51;490.48;;;440.40;;
22015;SDS011;11172;51.698;-0.292;2022-09-30T00:16:18;514.60;;;462.55;;
22015;SDS011;11172;51.698;-0.292;2022-09-30T00:18:45;508.85;;;457.05;;
22015;SDS011;11172;51.698;-0.292;2022-09-30T00:21:11;502.27;;;450.67;;
22015;SDS011;11172;51.698;-0.292;2022-09-30T00:23:38;509.35;;;457.20;;
22015;SDS011;11172;51.698;-0.292;2022-09-30T00:26:06;494.73;;;443.10;;
22015;SDS011;11172;51.698;-0.292;2022-09-30T00:28:32;502.63;;;449.83;;
22015;SDS011;11172;51.698;-0.292;2022-09-30T00:30:59;503.92;;;451.00;;
22015;SDS011;11172;51.698;-0.292;2022-09-30T00:33:25;503.42;;;451.02;;
22015;SDS011;11172;51.698;-0.292;2022-09-30T00:35:51;495.75;;;444.05;;
22015;SDS011;11172;51.698;-0.292;2022-09-30T00:38:17;498.58;;;446.33;;
22015;SDS011;11172;51.698;-0.292;2022-09-30T00:40:43;501.40;;;448.52;;
22015;SDS011;11172;51.698;-0.292;2022-09-30T00:43:12;495.55;;;443.55;;
22015;SDS011;11172;51.698;-0.292;2022-09-30T00:45:55;512.17;;;460.58;;
22015;SDS011;11172;51.698;-0.292;2022-09-30T00:48:28;513.22;;;459.08;;
22015;SDS011;11172;51.698;-0.292;2022-09-30T00:50:55;517.20;;;464.23;;
22015;SDS011;11172;51.698;-0.292;2022-09-30T00:53:28;526.95;;;473.02;;
22015;SDS011;11172;51.698;-0.292;2022-09-30T01:00:47;545.50;;;489.48;;
22015;SDS011;11172;51.698;-0.292;2022-09-30T01:03:15;538.83;;;483.67;;
22015;SDS011;11172;51.698;-0.292;2022-09-30T01:05:42;546.42;;;492.30;;
22015;SDS011;11172;51.698;-0.292;2022-09-30T01:08:08;528.92;;;475.75;;
22015;SDS011;11172;51.698;-0.292;2022-09-30T01:10:35;543.53;;;488.77;;
22015;SDS011;11172;51.698;-0.292;2022-09-30T01:13:01;533.60;;;479.92;;
22015;SDS011;11172;51.698;-0.292;2022-09-30T01:15:37;536.08;;;482.83;;
22015;SDS011;11172;51.698;-0.292;2022-09-30T01:25:49;542.90;;;488.17;;
22015;SDS011;11172;51.698;-0.292;2022-09-30T01:30:57;533.05;;;480.30;;
22015;SDS011;11172;51.698;-0.292;2022-09-30T01:43:47;528.10;;;476.17;;
22015;SDS011;11172;51.698;-0.292;2022-09-30T01:49:01;540.80;;;488.17;;
22015;SDS011;11172;51.698;-0.292;2022-09-30T01:51:54;559.72;;;505.13;;
22015;SDS011;11172;51.698;-0.292;2022-09-30T01:54:40;550.42;;;495.65;;
22015;SDS011;11172;51.698;-0.292;2022-09-30T01:57:08;557.92;;;503.00;;
22015;SDS011;11172;51.698;-0.292;2022-09-30T01:59:43;541.05;;;487.00;;
22015;SDS011;11172;51.698;-0.292;2022-09-30T02:02:12;546.10;;;492.27;;
22015;SDS011;11172;51.698;-0.292;2022-09-30T02:04:44;546.08;;;493.02;;
22015;SDS011;11172;51.698;-0.292;2022-09-30T02:07:12;534.47;;;480.83;;
22015;SDS011;11172;51.698;-0.292;2022-09-30T02:09:45;540.15;;;485.10;;
22015;SDS011;11172;51.698;-0.292;2022-09-30T02:12:14;536.58;;;482.70;;
22015;SDS011;11172;51.698;-0.292;2022-09-30T02:14:43;532.95;;;480.50;;
22015;SDS011;11172;51.698;-0.292;2022-09-30T02:17:15;549.45;;;496.05;;
22015;SDS011;11172;51.698;-0.292;2022-09-30T02:19:49;540.05;;;488.02;;
22015;SDS011;11172;51.698;-0.292;2022-09-30T02:22:20;545.97;;;494.35;;
22015;SDS011;11172;51.698;-0.292;2022-09-30T02:24:48;534.40;;;482.25;;
22015;SDS011;11172;51.698;-0.292;2022-09-30T02:27:20;544.42;;;491.45;;
22015;SDS011;11172;51.698;-0.292;2022-09-30T02:29:49;537.72;;;485.45;;
22015;SDS011;11172;51.698;-0.292;2022-09-30T02:32:39;528.80;;;477.67;;
22015;SDS011;11172;51.698;-0.292;2022-09-30T02:35:07;538.95;;;485.95;;
22015;SDS011;11172;51.698;-0.292;2022-09-30T02:37:50;525.50;;;475.67;;
22015;SDS011;11172;51.698;-0.292;2022-09-30T02:42:43;515.05;;;464.27;;
22015;SDS011;11172;51.698;-0.292;2022-09-30T02:45:14;522.45;;;471.23;;
22015;SDS011;11172;51.698;-0.292;2022-09-30T02:52:57;514.08;;;465.02;;
22015;SDS011;11172;51.698;-0.292;2022-09-30T02:58:20;537.75;;;484.30;;
22015;SDS011;11172;51.698;-0.292;2022-09-30T03:00:49;509.35;;;459.80;;
22015;SDS011;11172;51.698;-0.292;2022-09-30T03:06:13;536.45;;;483.88;;
22015;SDS011;11172;51.698;-0.292;2022-09-30T03:08:40;515.72;;;466.02;;
22015;SDS011;11172;51.698;-0.292;2022-09-30T03:11:06;519.25;;;467.50;;
22015;SDS011;11172;51.698;-0.292;2022-09-30T03:26:49;494.55;;;444.02;;
22015;SDS011;11172;51.698;-0.292;2022-09-30T03:37:01;490.05;;;441.45;;
22015;SDS011;11172;51.698;-0.292;2022-09-30T03:39:34;502.95;;;453.33;;
22015;SDS011;11172;51.698;-0.292;2022-09-30T03:42:44;487.10;;;440.33;;
22015;SDS011;11172;51.698;-0.292;2022-09-30T03:45:15;497.55;;;448.55;;
22015;SDS011;11172;51.698;-0.292;2022-09-30T03:47:42;512.67;;;462.38;;
22015;SDS011;11172;51.698;-0.292;2022-09-30T03:50:09;493.30;;;445.63;;
22015;SDS011;11172;51.698;-0.292;2022-09-30T03:52:36;502.33;;;453.85;;
22015;SDS011;11172;51.698;-0.292;2022-09-30T03:55:04;483.70;;;436.15;;
22015;SDS011;11172;51.698;-0.292;2022-09-30T03:57:32;486.45;;;438.33;;
22015;SDS011;11172;51.698;-0.292;2022-09-30T03:59:58;479.52;;;431.95;;
22015;SDS011;11172;51.698;-0.292;2022-09-30T04:02:25;485.65;;;438.83;;
22015;SDS011;11172;51.698;-0.292;2022-09-30T04:04:52;504.08;;;454.83;;
22015;SDS011;11172;51.698;-0.292;2022-09-30T04:07:18;470.30;;;425.10;;
22015;SDS011;11172;51.698;-0.292;2022-09-30T04:09:44;472.30;;;426.60;;
22015;SDS011;11172;51.698;-0.292;2022-09-30T04:12:10;475.58;;;430.10;;
22015;SDS011;11172;51.698;-0.292;2022-09-30T04:14:36;480.58;;;434.83;;
22015;SDS011;11172;51.698;-0.292;2022-09-30T04:17:03;484.13;;;438.00;;
22015;SDS011;11172;51.698;-0.292;2022-09-30T04:19:29;482.00;;;435.75;;
22015;SDS011;11172;51.698;-0.292;2022-09-30T04:21:55;469.63;;;424.38;;
22015;SDS011;11172;51.698;-0.292;2022-09-30T04:24:22;472.83;;;427.85;;
22015;SDS011;11172;51.698;-0.292;2022-09-30T04:26:48;478.65;;;432.85;;
22015;SDS011;11172;51.698;-0.292;2022-09-30T04:29:14;479.48;;;432.33;;
22015;SDS011;11172;51.698;-0.292;2022-09-30T04:31:40;482.42;;;437.20;;
22015;SDS011;11172;51.698;-0.292;2022-09-30T04:34:06;466.60;;;422.02;;
22015;SDS011;11172;51.698;-0.292;2022-09-30T04:36:34;481.95;;;434.95;;
22015;SDS011;11172;51.698;-0.292;2022-09-30T04:39:00;461.70;;;417.08;;
22015;SDS011;11172;51.698;-0.292;2022-09-30T04:41:26;466.48;;;421.65;;
22015;SDS011;11172;51.698;-0.292;2022-09-30T04:43:53;469.73;;;425.20;;
22015;SDS011;11172;51.698;-0.292;2022-09-30T04:46:20;466.35;;;419.42;;
22015;SDS011;11172;51.698;-0.292;2022-09-30T04:48:47;471.90;;;423.17;;
22015;SDS011;11172;51.698;-0.292;2022-09-30T04:51:13;482.10;;;432.08;;
22015;SDS011;11172;51.698;-0.292;2022-09-30T04:53:40;466.38;;;419.70;;
22015;SDS011;11172;51.698;-0.292;2022-09-30T04:56:06;463.38;;;416.52;;
22015;SDS011;11172;51.698;-0.292;2022-09-30T04:58:32;463.48;;;415.50;;
22015;SDS011;11172;51.698;-0.292;2022-09-30T05:00:59;460.88;;;416.85;;
22015;SDS011;11172;51.698;-0.292;2022-09-30T05:03:25;452.95;;;410.00;;
22015;SDS011;11172;51.698;-0.292;2022-09-30T05:05:51;442.27;;;399.40;;
22015;SDS011;11172;51.698;-0.292;2022-09-30T05:08:17;455.45;;;407.20;;
22015;SDS011;11172;51.698;-0.292;2022-09-30T05:10:43;462.15;;;417.13;;
22015;SDS011;11172;51.698;-0.292;2022-09-30T05:13:11;435.70;;;390.48;;
22015;SDS011;11172;51.698;-0.292;2022-09-30T05:15:37;448.83;;;405.10;;
22015;SDS011;11172;51.698;-0.292;2022-09-30T05:18:03;445.25;;;401.42;;
22015;SDS011;11172;51.698;-0.292;2022-09-30T05:20:29;475.35;;;399.65;;
22015;SDS011;11172;51.698;-0.292;2022-09-30T05:22:56;449.60;;;402.90;;
22015;SDS011;11172;51.698;-0.292;2022-09-30T05:25:22;448.30;;;398.83;;
22015;SDS011;11172;51.698;-0.292;2022-09-30T05:27:48;458.13;;;408.63;;
22015;SDS011;11172;51.698;-0.292;2022-09-30T05:30:14;462.10;;;412.30;;
22015;SDS011;11172;51.698;-0.292;2022-09-30T05:32:40;446.30;;;399.60;;
22015;SDS011;11172;51.698;-0.292;2022-09-30T05:35:06;441.35;;;397.63;;
22015;SDS011;11172;51.698;-0.292;2022-09-30T05:37:33;454.15;;;411.10;;
22015;SDS011;11172;51.698;-0.292;2022-09-30T05:39:59;449.33;;;400.23;;
22015;SDS011;11172;51.698;-0.292;2022-09-30T05:42:25;442.92;;;399.92;;
22015;SDS011;11172;51.698;-0.292;2022-09-30T05:44:51;447.40;;;400.00;;
22015;SDS011;11172;51.698;-0.292;2022-09-30T05:47:17;448.25;;;394.42;;
22015;SDS011;11172;51.698;-0.292;2022-09-30T05:49:43;449.10;;;402.27;;
22015;SDS011;11172;51.698;-0.292;2022-09-30T05:52:10;447.70;;;401.15;;
22015;SDS011;11172;51.698;-0.292;2022-09-30T05:54:38;434.50;;;391.38;;
22015;SDS011;11172;51.698;-0.292;2022-09-30T05:57:04;437.85;;;394.38;;
22015;SDS011;11172;51.698;-0.292;2022-09-30T05:59:31;434.65;;;391.73;;
22015;SDS011;11172;51.698;-0.292;2022-09-30T06:04:23;457.83;;;400.35;;
22015;SDS011;11172;51.698;-0.292;2022-09-30T06:06:49;441.98;;;395.50;;
22015;SDS011;11172;51.698;-0.292;2022-09-30T06:09:15;424.63;;;380.05;;
22015;SDS011;11172;51.698;-0.292;2022-09-30T06:11:42;440.45;;;393.90;;
22015;SDS011;11172;51.698;-0.292;2022-09-30T06:14:07;441.08;;;394.38;;
22015;SDS011;11172;51.698;-0.292;2022-09-30T06:16:33;422.52;;;380.73;;
22015;SDS011;11172;51.698;-0.292;2022-09-30T06:19:00;432.80;;;390.38;;
22015;SDS011;11172;51.698;-0.292;2022-09-30T06:21:26;423.75;;;382.50;;
22015;SDS011;11172;51.698;-0.292;2022-09-30T06:23:53;432.40;;;386.42;;
22015;SDS011;11172;51.698;-0.292;2022-09-30T06:26:19;445.85;;;399.00;;
22015;SDS011;11172;51.698;-0.292;2022-09-30T06:28:45;428.40;;;384.30;;
22015;SDS011;11172;51.698;-0.292;2022-09-30T06:31:11;426.80;;;383.10;;
22015;SDS011;11172;51.698;-0.292;2022-09-30T06:33:37;437.75;;;390.50;;
22015;SDS011;11172;51.698;-0.292;2022-09-30T06:36:03;425.80;;;382.83;;
22015;SDS011;11172;51.698;-0.292;2022-09-30T06:38:31;422.35;;;381.35;;
22015;SDS011;11172;51.698;-0.292;2022-09-30T06:40:58;440.83;;;397.85;;
22015;SDS011;11172;51.698;-0.292;2022-09-30T06:43:24;429.67;;;387.88;;
22015;SDS011;11172;51.698;-0.292;2022-09-30T06:45:50;418.52;;;377.85;;
22015;SDS011;11172;51.698;-0.292;2022-09-30T06:48:16;429.40;;;387.48;;
22015;SDS011;11172;51.698;-0.292;2022-09-30T06:50:42;422.42;;;380.65;;
22015;SDS011;11172;51.698;-0.292;2022-09-30T06:53:10;428.38;;;384.50;;
22015;SDS011;11172;51.698;-0.292;2022-09-30T06:55:36;424.63;;;382.67;;
22015;SDS011;11172;51.698;-0.292;2022-09-30T06:58:03;415.10;;;374.52;;
22015;SDS011;11172;51.698;-0.292;2022-09-30T07:00:31;419.52;;;378.75;;
22015;SDS011;11172;51.698;-0.292;2022-09-30T07:02:57;424.48;;;382.98;;
22015;SDS011;11172;51.698;-0.292;2022-09-30T07:05:23;425.88;;;385.00;;
22015;SDS011;11172;51.698;-0.292;2022-09-30T07:07:50;424.45;;;383.25;;
22015;SDS011;11172;51.698;-0.292;2022-09-30T07:10:17;418.73;;;375.65;;
22015;SDS011;11172;51.698;-0.292;2022-09-30T07:12:43;419.88;;;379.45;;
22015;SDS011;11172;51.698;-0.292;2022-09-30T07:15:09;420.40;;;379.65;;
22015;SDS011;11172;51.698;-0.292;2022-09-30T07:17:35;405.67;;;365.50;;
22015;SDS011;11172;51.698;-0.292;2022-09-30T07:20:01;413.25;;;372.42;;
22015;SDS011;11172;51.698;-0.292;2022-09-30T07:22:27;407.48;;;368.05;;
22015;SDS011;11172;51.698;-0.292;2022-09-30T07:24:55;411.00;;;369.63;;
22015;SDS011;11172;51.698;-0.292;2022-09-30T07:27:26;418.17;;;378.38;;
22015;SDS011;11172;51.698;-0.292;2022-09-30T07:29:53;415.65;;;375.23;;
22015;SDS011;11172;51.698;-0.292;2022-09-30T07:32:21;402.77;;;363.67;;
22015;SDS011;11172;51.698;-0.292;2022-09-30T07:34:47;425.35;;;384.17;;
22015;SDS011;11172;51.698;-0.292;2022-09-30T07:37:14;404.33;;;365.02;;
22015;SDS011;11172;51.698;-0.292;2022-09-30T07:39:41;410.98;;;371.48;;
22015;SDS011;11172;51.698;-0.292;2022-09-30T07:42:08;397.10;;;359.02;;
22015;SDS011;11172;51.698;-0.292;2022-09-30T07:44:34;411.88;;;372.52;;
22015;SDS011;11172;51.698;-0.292;2022-09-30T07:47:05;407.63;;;368.08;;
22015;SDS011;11172;51.698;-0.292;2022-09-30T07:49:31;401.73;;;363.25;;
22015;SDS011;11172;51.698;-0.292;2022-09-30T07:51:58;405.05;;;367.30;;
22015;SDS011;11172;51.698;-0.292;2022-09-30T07:54:25;406.77;;;368.67;;
22015;SDS011;11172;51.698;-0.292;2022-09-30T07:56:52;388.10;;;350.65;;
22015;SDS011;11172;51.698;-0.292;2022-09-30T07:59:18;407.95;;;370.25;;
22015;SDS011;11172;51.698;-0.292;2022-09-30T08:01:44;403.75;;;365.58;;
22015;SDS011;11172;51.698;-0.292;2022-09-30T08:04:11;393.90;;;356.20;;
22015;SDS011;11172;51.698;-0.292;2022-09-30T08:06:38;401.60;;;364.70;;
22015;SDS011;11172;51.698;-0.292;2022-09-30T08:09:05;396.25;;;359.38;;
22015;SDS011;11172;51.698;-0.292;2022-09-30T08:11:32;397.83;;;361.10;;
22015;SDS011;11172;51.698;-0.292;2022-09-30T08:13:58;397.58;;;360.88;;
22015;SDS011;11172;51.698;-0.292;2022-09-30T08:16:24;390.23;;;353.58;;
22015;SDS011;11172;51.698;-0.292;2022-09-30T08:18:58;381.23;;;345.90;;
22015;SDS011;11172;51.698;-0.292;2022-09-30T08:21:25;398.05;;;361.25;;
22015;SDS011;11172;51.698;-0.292;2022-09-30T08:23:51;385.80;;;350.10;;
22015;SDS011;11172;51.698;-0.292;2022-09-30T08:26:17;391.92;;;355.95;;
22015;SDS011;11172;51.698;-0.292;2022-09-30T08:28:43;395.27;;;359.42;;
22015;SDS011;11172;51.698;-0.292;2022-09-30T08:31:12;392.05;;;355.55;;
22015;SDS011;11172;51.698;-0.292;2022-09-30T08:33:39;387.15;;;351.90;;
22015;SDS011;11172;51.698;-0.292;2022-09-30T08:36:09;379.13;;;344.25;;
22015;SDS011;11172;51.698;-0.292;2022-09-30T08:38:35;387.38;;;351.23;;
22015;SDS011;11172;51.698;-0.292;2022-09-30T08:43:30;381.67;;;346.23;;
22015;SDS011;11172;51.698;-0.292;2022-09-30T08:53:22;353.85;;;320.20;;
22015;SDS011;11172;51.698;-0.292;2022-09-30T08:55:50;364.67;;;331.13;;
22015;SDS011;11172;51.698;-0.292;2022-09-30T08:58:27;359.73;;;326.05;;
22015;SDS011;11172;51.698;-0.292;2022-09-30T09:00:55;372.83;;;337.95;;
22015;SDS011;11172;51.698;-0.292;2022-09-30T09:03:25;359.63;;;325.98;;
22015;SDS011;11172;51.698;-0.292;2022-09-30T09:05:54;348.50;;;315.75;;
22015;SDS011;11172;51.698;-0.292;2022-09-30T09:09:09;332.75;;;302.42;;
22015;SDS011;11172;51.698;-0.292;2022-09-30T09:13:48;328.85;;;298.08;;
22015;SDS011;11172;51.698;-0.292;2022-09-30T09:16:20;335.88;;;303.77;;
22015;SDS011;11172;51.698;-0.292;2022-09-30T09:23:48;323.60;;;293.15;;
22015;SDS011;11172;51.698;-0.292;2022-09-30T09:26:15;311.88;;;282.52;;
22015;SDS011;11172;51.698;-0.292;2022-09-30T09:31:27;336.27;;;304.73;;
22015;SDS011;11172;51.698;-0.292;2022-09-30T09:33:55;312.85;;;282.67;;
22015;SDS011;11172;51.698;-0.292;2022-09-30T09:46:50;307.23;;;278.65;;
22015;SDS011;11172;51.698;-0.292;2022-09-30T09:54:36;285.95;;;259.52;;
22015;SDS011;11172;51.698;-0.292;2022-09-30T09:57:09;262.75;;;240.27;;
22015;SDS011;11172;51.698;-0.292;2022-09-30T09:59:35;276.33;;;250.60;;
22015;SDS011;11172;51.698;-0.292;2022-09-30T10:02:02;260.25;;;235.77;;
22015;SDS011;11172;51.698;-0.292;2022-09-30T10:04:28;269.38;;;244.27;;
22015;SDS011;11172;51.698;-0.292;2022-09-30T10:07:01;262.77;;;237.65;;
22015;SDS011;11172;51.698;-0.292;2022-09-30T10:09:37;263.35;;;238.68;;
22015;SDS011;11172;51.698;-0.292;2022-09-30T10:14:33;247.35;;;223.77;;
22015;SDS011;11172;51.698;-0.292;2022-09-30T10:17:01;249.95;;;225.77;;
22015;SDS011;11172;51.698;-0.292;2022-09-30T10:19:28;246.55;;;223.02;;
22015;SDS011;11172;51.698;-0.292;2022-09-30T10:24:36;250.20;;;226.77;;
22015;SDS011;11172;51.698;-0.292;2022-09-30T10:27:03;229.95;;;208.07;;
22015;SDS011;11172;51.698;-0.292;2022-09-30T10:29:33;228.63;;;206.80;;
22015;SDS011;11172;51.698;-0.292;2022-09-30T10:32:05;222.85;;;201.80;;
22015;SDS011;11172;51.698;-0.292;2022-09-30T10:34:33;220.45;;;199.02;;
22015;SDS011;11172;51.698;-0.292;2022-09-30T10:37:01;222.45;;;201.57;;
22015;SDS011;11172;51.698;-0.292;2022-09-30T10:39:33;217.23;;;196.32;;
22015;SDS011;11172;51.698;-0.292;2022-09-30T10:47:08;209.23;;;188.98;;
22015;SDS011;11172;51.698;-0.292;2022-09-30T10:49:41;211.25;;;189.82;;
22015;SDS011;11172;51.698;-0.292;2022-09-30T10:52:17;203.10;;;183.07;;
22015;SDS011;11172;51.698;-0.292;2022-09-30T10:57:14;194.85;;;176.13;;
22015;SDS011;11172;51.698;-0.292;2022-09-30T10:59:40;190.55;;;172.25;;
22015;SDS011;11172;51.698;-0.292;2022-09-30T11:02:19;171.90;;;155.85;;
22015;SDS011;11172;51.698;-0.292;2022-09-30T11:04:56;188.43;;;169.77;;
22015;SDS011;11172;51.698;-0.292;2022-09-30T11:07:36;174.93;;;158.40;;
22015;SDS011;11172;51.698;-0.292;2022-09-30T11:10:13;164.27;;;148.57;;
22015;SDS011;11172;51.698;-0.292;2022-09-30T11:12:49;163.50;;;147.95;;
22015;SDS011;11172;51.698;-0.292;2022-09-30T11:15:31;154.50;;;139.90;;
22015;SDS011;11172;51.698;-0.292;2022-09-30T11:18:01;156.93;;;142.15;;
22015;SDS011;11172;51.698;-0.292;2022-09-30T11:20:34;150.95;;;136.70;;
22015;SDS011;11172;51.698;-0.292;2022-09-30T11:23:03;143.50;;;130.20;;
22015;SDS011;11172;51.698;-0.292;2022-09-30T11:25:39;142.30;;;128.65;;
22015;SDS011;11172;51.698;-0.292;2022-09-30T11:28:13;137.55;;;124.82;;
22015;SDS011;11172;51.698;-0.292;2022-09-30T11:30:50;91.73;;;84.60;;
22015;SDS011;11172;51.698;-0.292;2022-09-30T11:33:29;135.65;;;123.05;;
22015;SDS011;11172;51.698;-0.292;2022-09-30T11:36:17;135.95;;;123.00;;
22015;SDS011;11172;51.698;-0.292;2022-09-30T11:41:29;125.47;;;113.85;;
22015;SDS011;11172;51.698;-0.292;2022-09-30T11:44:13;130.77;;;118.43;;
22015;SDS011;11172;51.698;-0.292;2022-09-30T11:54:36;122.95;;;111.60;;
22015;SDS011;11172;51.698;-0.292;2022-09-30T12:02:37;120.60;;;109.30;;
22015;SDS011;11172;51.698;-0.292;2022-09-30T12:05:05;116.80;;;105.75;;
22015;SDS011;11172;51.698;-0.292;2022-09-30T12:07:37;118.07;;;107.10;;
22015;SDS011;11172;51.698;-0.292;2022-09-30T12:12:40;120.28;;;108.72;;
22015;SDS011;11172;51.698;-0.292;2022-09-30T12:15:11;114.28;;;103.53;;
22015;SDS011;11172;51.698;-0.292;2022-09-30T12:17:40;79.78;;;73.20;;
22015;SDS011;11172;51.698;-0.292;2022-09-30T12:22:41;109.90;;;99.38;;
22015;SDS011;11172;51.698;-0.292;2022-09-30T12:25:18;112.85;;;102.30;;
22015;SDS011;11172;51.698;-0.292;2022-09-30T12:27:47;122.93;;;110.40;;
22015;SDS011;11172;51.698;-0.292;2022-09-30T12:30:16;107.43;;;97.47;;
22015;SDS011;11172;51.698;-0.292;2022-09-30T12:33:26;103.40;;;93.70;;
22015;SDS011;11172;51.698;-0.292;2022-09-30T12:45:57;100.90;;;91.32;;
22015;SDS011;11172;51.698;-0.292;2022-09-30T12:48:31;137.77;;;125.57;;
22015;SDS011;11172;51.698;-0.292;2022-09-30T12:50:58;151.20;;;138.18;;
22015;SDS011;11172;51.698;-0.292;2022-09-30T12:55:51;164.80;;;150.60;;
22015;SDS011;11172;51.698;-0.292;2022-09-30T12:58:24;169.00;;;153.85;;
22015;SDS011;11172;51.698;-0.292;2022-09-30T13:00:58;177.65;;;162.13;;
22015;SDS011;11172;51.698;-0.292;2022-09-30T13:03:25;195.13;;;177.85;;
22015;SDS011;11172;51.698;-0.292;2022-09-30T13:05:52;199.02;;;181.75;;
22015;SDS011;11172;51.698;-0.292;2022-09-30T13:10:50;216.43;;;197.73;;
22015;SDS011;11172;51.698;-0.292;2022-09-30T13:13:21;225.55;;;205.98;;
22015;SDS011;11172;51.698;-0.292;2022-09-30T13:15:56;228.70;;;208.70;;
22015;SDS011;11172;51.698;-0.292;2022-09-30T13:20:54;246.30;;;225.10;;
22015;SDS011;11172;51.698;-0.292;2022-09-30T13:23:40;250.25;;;228.68;;
22015;SDS011;11172;51.698;-0.292;2022-09-30T13:41:45;313.73;;;287.15;;
22015;SDS011;11172;51.698;-0.292;2022-09-30T13:44:18;326.73;;;299.40;;
22015;SDS011;11172;51.698;-0.292;2022-09-30T13:49:35;325.05;;;297.83;;
22015;SDS011;11172;51.698;-0.292;2022-09-30T13:52:06;359.83;;;329.98;;
22015;SDS011;11172;51.698;-0.292;2022-09-30T13:54:34;350.80;;;321.88;;
22015;SDS011;11172;51.698;-0.292;2022-09-30T13:57:01;356.92;;;327.77;;
22015;SDS011;11172;51.698;-0.292;2022-09-30T13:59:34;367.30;;;336.85;;
22015;SDS011;11172;51.698;-0.292;2022-09-30T14:02:16;544.90;;;501.98;;
22015;SDS011;11172;51.698;-0.292;2022-09-30T14:20:11;651.13;;;598.08;;
22015;SDS011;11172;51.698;-0.292;2022-09-30T14:22:40;662.03;;;607.83;;
22015;SDS011;11172;51.698;-0.292;2022-09-30T14:25:13;665.97;;;611.45;;
22015;SDS011;11172;51.698;-0.292;2022-09-30T14:27:42;689.13;;;632.42;;
22015;SDS011;11172;51.698;-0.292;2022-09-30T14:35:06;767.13;;;702.40;;
22015;SDS011;11172;51.698;-0.292;2022-09-30T14:37:49;764.53;;;699.60;;
22015;SDS011;11172;51.698;-0.292;2022-09-30T14:40:18;777.53;;;711.58;;
22015;SDS011;11172;51.698;-0.292;2022-09-30T14:42:44;788.45;;;720.28;;
22015;SDS011;11172;51.698;-0.292;2022-09-30T14:45:23;783.50;;;715.05;;
22015;SDS011;11172;51.698;-0.292;2022-09-30T14:47:51;794.75;;;723.90;;
22015;SDS011;11172;51.698;-0.292;2022-09-30T14:50:22;793.00;;;722.55;;
22015;SDS011;11172;51.698;-0.292;2022-09-30T14:52:50;796.92;;;724.55;;
22015;SDS011;11172;51.698;-0.292;2022-09-30T14:55:21;796.85;;;724.47;;
22015;SDS011;11172;51.698;-0.292;2022-09-30T14:57:49;789.15;;;716.35;;
22015;SDS011;11172;51.698;-0.292;2022-09-30T15:00:19;789.13;;;715.97;;
22015;SDS011;11172;51.698;-0.292;2022-09-30T15:02:47;797.97;;;722.95;;
22015;SDS011;11172;51.698;-0.292;2022-09-30T15:05:13;782.42;;;707.80;;
22015;SDS011;11172;51.698;-0.292;2022-09-30T15:07:41;783.75;;;708.78;;
22015;SDS011;11172;51.698;-0.292;2022-09-30T15:10:15;787.15;;;711.53;;
22015;SDS011;11172;51.698;-0.292;2022-09-30T15:12:42;782.63;;;707.25;;
22015;SDS011;11172;51.698;-0.292;2022-09-30T15:15:25;793.22;;;717.10;;
22015;SDS011;11172;51.698;-0.292;2022-09-30T15:17:52;784.40;;;707.42;;
22015;SDS011;11172;51.698;-0.292;2022-09-30T15:22:49;775.75;;;698.63;;
22015;SDS011;11172;51.698;-0.292;2022-09-30T15:25:16;773.42;;;696.42;;
22015;SDS011;11172;51.698;-0.292;2022-09-30T15:27:43;761.72;;;684.53;;
22015;SDS011;11172;51.698;-0.292;2022-09-30T15:32:42;768.55;;;690.28;;
22015;SDS011;11172;51.698;-0.292;2022-09-30T15:35:14;757.33;;;679.67;;
22015;SDS011;11172;51.698;-0.292;2022-09-30T15:37:41;761.30;;;683.13;;
22015;SDS011;11172;51.698;-0.292;2022-09-30T15:40:14;750.40;;;672.35;;
22015;SDS011;11172;51.698;-0.292;2022-09-30T15:43:00;756.60;;;676.67;;
22015;SDS011;11172;51.698;-0.292;2022-09-30T15:45:36;747.00;;;668.05;;
22015;SDS011;11172;51.698;-0.292;2022-09-30T15:48:05;743.20;;;664.25;;
22015;SDS011;11172;51.698;-0.292;2022-09-30T15:50:39;760.50;;;680.75;;
22015;SDS011;11172;51.698;-0.292;2022-09-30T15:53:16;744.58;;;665.17;;
22015;SDS011;11172;51.698;-0.292;2022-09-30T15:55:43;738.03;;;657.58;;
22015;SDS011;11172;51.698;-0.292;2022-09-30T16:01:15;738.58;;;656.17;;
22015;SDS011;11172;51.698;-0.292;2022-09-30T16:03:45;730.88;;;646.00;;
22015;SDS011;11172;51.698;-0.292;2022-09-30T16:06:12;737.85;;;656.05;;
22015;SDS011;11172;51.698;-0.292;2022-09-30T16:08:41;735.33;;;653.60;;
22015;SDS011;11172;51.698;-0.292;2022-09-30T16:11:08;734.28;;;653.95;;
22015;SDS011;11172;51.698;-0.292;2022-09-30T16:13:35;735.25;;;655.40;;
22015;SDS011;11172;51.698;-0.292;2022-09-30T16:16:02;745.13;;;663.72;;
22015;SDS011;11172;51.698;-0.292;2022-09-30T16:18:29;738.40;;;657.22;;
22015;SDS011;11172;51.698;-0.292;2022-09-30T16:21:02;740.10;;;658.90;;
22015;SDS011;11172;51.698;-0.292;2022-09-30T16:23:36;728.00;;;645.47;;
22015;SDS011;11172;51.698;-0.292;2022-09-30T16:28:41;740.10;;;656.72;;
22015;SDS011;11172;51.698;-0.292;2022-09-30T16:31:07;733.38;;;651.67;;
22015;SDS011;11172;51.698;-0.292;2022-09-30T16:33:34;740.35;;;658.15;;
22015;SDS011;11172;51.698;-0.292;2022-09-30T16:36:03;727.03;;;644.53;;
22015;SDS011;11172;51.698;-0.292;2022-09-30T16:38:29;736.65;;;653.47;;
22015;SDS011;11172;51.698;-0.292;2022-09-30T16:40:55;728.28;;;646.40;;
22015;SDS011;11172;51.698;-0.292;2022-09-30T16:43:22;729.55;;;646.85;;
22015;SDS011;11172;51.698;-0.292;2022-09-30T16:45:51;719.08;;;636.53;;
22015;SDS011;11172;51.698;-0.292;2022-09-30T16:48:17;728.85;;;648.08;;
22015;SDS011;11172;51.698;-0.292;2022-09-30T16:51:02;723.88;;;640.13;;
22015;SDS011;11172;51.698;-0.292;2022-09-30T16:53:29;736.20;;;652.88;;
22015;SDS011;11172;51.698;-0.292;2022-09-30T16:55:55;728.05;;;644.22;;
22015;SDS011;11172;51.698;-0.292;2022-09-30T16:58:21;726.88;;;641.55;;
22015;SDS011;11172;51.698;-0.292;2022-09-30T17:00:47;731.60;;;649.40;;
22015;SDS011;11172;51.698;-0.292;2022-09-30T17:03:14;715.17;;;628.55;;
22015;SDS011;11172;51.698;-0.292;2022-09-30T17:05:41;736.67;;;651.47;;
22015;SDS011;11172;51.698;-0.292;2022-09-30T17:08:08;725.40;;;636.67;;
22015;SDS011;11172;51.698;-0.292;2022-09-30T17:10:37;719.75;;;631.00;;
22015;SDS011;11172;51.698;-0.292;2022-09-30T17:13:03;737.15;;;655.58;;
22015;SDS011;11172;51.698;-0.292;2022-09-30T17:15:31;716.42;;;631.90;;
22015;SDS011;11172;51.698;-0.292;2022-09-30T17:17:57;719.58;;;629.67;;